createdAt,value
2023-01-15T00:01:46.473Z,10.20
2023-01-15T00:04:13.831Z,9.00
2023-01-15T00:06:42.551Z,9.60
2023-01-15T00:09:13.863Z,10.30
2023-01-15T00:11:41.120Z,10.30
2023-01-15T00:14:08.264Z,10.70
2023-01-15T00:16:35.522Z,11.10
2023-01-15T00:19:04.633Z,11.10
2023-01-15T00:21:31.880Z,8.30
2023-01-15T00:24:17.958Z,8.50
2023-01-15T00:27:03.847Z,9.30
2023-01-15T00:29:32.430Z,9.60
2023-01-15T00:32:02.120Z,10.70
2023-01-15T00:34:31.446Z,11.40
2023-01-15T00:36:59.098Z,9.00
2023-01-15T00:39:26.964Z,8.80
2023-01-15T00:41:54.761Z,8.20
2023-01-15T00:44:22.101Z,10.10
2023-01-15T00:46:51.710Z,9.40
2023-01-15T00:49:21.297Z,10.50
2023-01-15T00:51:50.291Z,10.20
2023-01-15T00:54:17.987Z,10.40
2023-01-15T00:56:45.413Z,9.60
2023-01-15T00:59:12.873Z,8.50
2023-01-15T01:01:40.512Z,9.40
2023-01-15T01:04:07.985Z,10.30
2023-01-15T01:06:35.547Z,10.20
2023-01-15T01:09:19.795Z,9.60
2023-01-15T01:11:49.094Z,11.10
2023-01-15T01:14:16.245Z,8.20
2023-01-15T01:16:44.210Z,9.40
2023-01-15T01:19:16.583Z,9.60
2023-01-15T01:21:44.963Z,10.10
2023-01-15T01:24:13.357Z,10.30
2023-01-15T01:26:41.014Z,10.90
2023-01-15T01:29:08.152Z,9.60
2023-01-15T01:31:35.382Z,9.10
2023-01-15T01:34:02.659Z,9.00
2023-01-15T01:36:34.425Z,9.90
2023-01-15T01:39:02.071Z,9.80
2023-01-15T01:41:29.223Z,10.70
2023-01-15T01:44:09.213Z,10.60
2023-01-15T01:46:36.748Z,9.90
2023-01-15T01:49:05.314Z,10.50
2023-01-15T01:51:38.221Z,8.30
2023-01-15T01:54:05.386Z,9.70
2023-01-15T01:56:33.629Z,10.50
2023-01-15T01:59:01.511Z,9.10
2023-01-15T02:01:28.774Z,10.30
2023-01-15T02:03:56.201Z,10.20
2023-01-15T02:06:24.854Z,8.30
2023-01-15T02:08:52.466Z,8.30
2023-01-15T02:11:21.841Z,9.70
2023-01-15T02:13:52.346Z,10.60
2023-01-15T02:16:51.991Z,11.80
2023-01-15T02:19:41.767Z,8.60
2023-01-15T02:22:39.123Z,9.70
2023-01-15T02:25:17.843Z,9.00
2023-01-15T02:27:55.849Z,9.20
2023-01-15T02:30:28.570Z,10.10
2023-01-15T02:33:01.724Z,9.90
2023-01-15T02:35:40.442Z,10.00
2023-01-15T02:38:11.587Z,11.10
2023-01-15T02:40:39.133Z,10.00
2023-01-15T02:43:06.301Z,8.90
2023-01-15T02:45:35.042Z,11.00
2023-01-15T02:48:09.124Z,10.60
2023-01-15T02:50:38.245Z,11.50
2023-01-15T02:53:08.221Z,11.00
2023-01-15T02:55:42.516Z,11.30
2023-01-15T02:58:12.591Z,9.00
2023-01-15T03:00:44.639Z,8.90
2023-01-15T03:03:22.395Z,10.60
2023-01-15T03:05:54.768Z,11.50
2023-01-15T03:08:21.920Z,9.60
2023-01-15T03:11:12.319Z,11.30
2023-01-15T03:13:53.598Z,10.70
2023-01-15T03:16:39.983Z,10.10
2023-01-15T03:19:14.007Z,9.20
2023-01-15T03:21:49.964Z,9.60
2023-01-15T03:24:21.758Z,10.00
2023-01-15T03:26:48.979Z,10.40
2023-01-15T03:29:16.136Z,12.30
2023-01-15T03:31:45.118Z,9.70
2023-01-15T03:34:12.363Z,9.80
2023-01-15T03:36:40.843Z,8.90
2023-01-15T03:39:08.304Z,9.60
2023-01-15T03:42:23.794Z,9.90
2023-01-15T03:45:25.651Z,11.80
2023-01-15T03:47:56.901Z,11.40
2023-01-15T03:50:33.586Z,11.90
2023-01-15T03:53:08.001Z,10.00
2023-01-15T03:55:55.425Z,8.60
2023-01-15T03:58:29.676Z,9.10
2023-01-15T04:01:00.091Z,9.60
2023-01-15T04:03:29.172Z,9.60
2023-01-15T04:05:58.243Z,9.70
2023-01-15T04:08:26.944Z,9.60
2023-01-15T04:10:58.424Z,9.50
2023-01-15T04:13:31.217Z,9.90
2023-01-15T04:15:58.926Z,10.30
2023-01-15T04:18:26.492Z,10.60
2023-01-15T04:20:55.984Z,10.20
2023-01-15T04:23:23.545Z,10.80
2023-01-15T04:25:50.805Z,10.50
2023-01-15T04:28:18.054Z,11.30
2023-01-15T04:30:45.365Z,10.00
2023-01-15T04:33:12.556Z,11.00
2023-01-15T04:35:39.715Z,10.40
2023-01-15T04:38:06.857Z,10.80
2023-01-15T04:40:52.785Z,10.00
2023-01-15T04:43:38.433Z,9.40
2023-01-15T04:46:05.518Z,9.30
2023-01-15T04:48:32.621Z,10.10
2023-01-15T04:51:04.417Z,10.80
2023-01-15T04:53:31.748Z,11.10
2023-01-15T04:56:02.991Z,10.70
2023-01-15T04:58:30.130Z,9.70
2023-01-15T05:00:57.622Z,11.70
2023-01-15T05:03:24.948Z,11.60
2023-01-15T05:05:52.171Z,11.80
2023-01-15T05:08:19.549Z,11.40
2023-01-15T05:10:46.712Z,12.40
2023-01-15T05:13:13.925Z,11.90
2023-01-15T05:15:42.985Z,11.10
2023-01-15T05:18:10.411Z,12.80
2023-01-15T05:20:37.754Z,14.00
2023-01-15T05:23:04.899Z,15.20
2023-01-15T05:25:32.156Z,14.60
2023-01-15T05:27:59.300Z,14.10
2023-01-15T05:30:26.462Z,12.40
2023-01-15T05:32:53.704Z,13.80
2023-01-15T05:35:20.859Z,15.20
2023-01-15T05:37:48.001Z,13.80
2023-01-15T05:40:15.159Z,14.00
2023-01-15T05:42:42.413Z,14.40
2023-01-15T05:45:10.064Z,14.30
2023-01-15T05:47:37.326Z,12.80
2023-01-15T05:50:05.129Z,15.10
2023-01-15T05:52:32.272Z,14.40
2023-01-15T05:54:59.481Z,14.50
2023-01-15T05:57:26.536Z,14.80
2023-01-15T05:59:55.364Z,12.70
2023-01-15T06:02:23.171Z,12.30
2023-01-15T06:04:50.435Z,11.90
2023-01-15T06:07:20.406Z,12.50
2023-01-15T06:09:47.514Z,12.70
2023-01-15T06:12:14.654Z,14.00
2023-01-15T06:14:41.797Z,12.80
2023-01-15T06:17:09.056Z,11.80
2023-01-15T06:19:36.100Z,13.30
2023-01-15T06:22:04.169Z,13.10
2023-01-15T06:24:31.329Z,14.00
2023-01-15T06:26:58.473Z,14.20
2023-01-15T06:29:25.669Z,12.30
2023-01-15T06:31:52.770Z,14.10
2023-01-15T06:34:20.017Z,13.20
2023-01-15T06:36:47.174Z,14.70
2023-01-15T06:39:14.432Z,13.60
2023-01-15T06:42:00.315Z,15.10
2023-01-15T06:44:46.401Z,12.80
2023-01-15T06:47:22.385Z,13.00
2023-01-15T06:49:51.790Z,13.10
2023-01-15T06:52:19.020Z,13.70
2023-01-15T06:54:46.186Z,13.80
2023-01-15T06:57:13.649Z,16.10
2023-01-15T06:59:40.871Z,13.10
2023-01-15T07:02:08.189Z,13.10
2023-01-15T07:04:35.299Z,13.20
2023-01-15T07:07:02.528Z,13.80
2023-01-15T07:09:29.897Z,16.90
2023-01-15T07:11:57.131Z,16.80
2023-01-15T07:14:25.834Z,14.60
2023-01-15T07:16:53.293Z,15.00
2023-01-15T07:19:20.817Z,14.40
2023-01-15T07:21:49.211Z,14.50
2023-01-15T07:24:17.187Z,16.60
2023-01-15T07:26:45.934Z,16.10
2023-01-15T07:29:13.841Z,13.30
2023-01-15T07:31:41.842Z,14.20
2023-01-15T07:34:09.156Z,15.10
2023-01-15T07:36:37.054Z,14.20
2023-01-15T07:39:05.856Z,16.50
2023-01-15T07:41:52.068Z,15.70
2023-01-15T07:44:39.636Z,12.30
2023-01-15T07:47:39.370Z,13.70
2023-01-15T07:50:09.444Z,14.40
2023-01-15T07:52:36.926Z,13.90
2023-01-15T07:55:04.589Z,16.90
2023-01-15T07:57:31.792Z,14.90
2023-01-15T07:59:58.994Z,12.30
2023-01-15T08:02:26.617Z,12.90
2023-01-15T08:04:53.723Z,12.10
2023-01-15T08:07:20.851Z,15.40
2023-01-15T08:09:48.095Z,13.90
2023-01-15T08:12:34.009Z,12.90
2023-01-15T08:15:13.713Z,11.60
2023-01-15T08:17:42.952Z,11.90
2023-01-15T08:20:13.096Z,13.20
2023-01-15T08:22:41.534Z,12.70
2023-01-15T08:25:09.584Z,13.10
2023-01-15T08:27:37.780Z,13.70
2023-01-15T08:30:06.061Z,11.50
2023-01-15T08:32:33.204Z,12.70
2023-01-15T08:35:00.578Z,12.50
2023-01-15T08:37:27.805Z,12.50
2023-01-15T08:39:55.158Z,11.70
2023-01-15T08:42:22.826Z,11.60
2023-01-15T08:44:50.077Z,11.60
2023-01-15T08:47:17.846Z,10.40
2023-01-15T08:49:46.627Z,13.80
2023-01-15T08:52:14.492Z,16.30
2023-01-15T08:54:42.304Z,17.40
2023-01-15T08:57:10.122Z,14.50
2023-01-15T08:59:39.013Z,10.00
2023-01-15T09:02:06.435Z,10.50
2023-01-15T09:04:33.739Z,13.70
2023-01-15T09:07:01.261Z,15.10
2023-01-15T09:09:28.634Z,11.20
2023-01-15T09:11:55.679Z,15.90
2023-01-15T09:14:56.042Z,14.00
2023-01-15T09:17:09.865Z,13.20
2023-01-15T09:19:39.664Z,14.00
2023-01-15T09:22:06.914Z,12.00
2023-01-15T09:24:34.121Z,12.70
2023-01-15T09:27:01.346Z,13.10
2023-01-15T09:29:28.990Z,17.20
2023-01-15T09:31:56.169Z,13.80
2023-01-15T09:34:23.379Z,13.60
2023-01-15T09:36:51.595Z,14.20
2023-01-15T09:39:18.715Z,14.40
2023-01-15T09:42:04.585Z,14.40
2023-01-15T09:44:44.132Z,14.20
2023-01-15T09:47:24.299Z,14.10
2023-01-15T09:50:30.341Z,9.90
2023-01-15T09:53:25.296Z,10.70
2023-01-15T09:55:52.624Z,13.10
2023-01-15T09:58:21.964Z,12.80
2023-01-15T10:00:50.793Z,12.70
2023-01-15T10:03:25.831Z,13.80
2023-01-15T10:06:07.102Z,9.30
2023-01-15T10:08:37.679Z,11.20
2023-01-15T10:11:11.948Z,13.70
2023-01-15T10:13:42.171Z,13.00
2023-01-15T10:16:10.920Z,13.50
2023-01-15T10:18:39.337Z,14.20
2023-01-15T10:21:15.600Z,14.80
2023-01-15T10:24:04.162Z,12.30
2023-01-15T10:26:56.705Z,11.30
2023-01-15T10:29:48.831Z,13.60
2023-01-15T10:32:19.391Z,14.00
2023-01-15T10:35:08.429Z,15.00
2023-01-15T10:37:50.731Z,14.70
2023-01-15T10:40:55.875Z,13.60
2023-01-15T10:43:49.113Z,9.80
2023-01-15T10:46:22.516Z,11.20
2023-01-15T10:48:51.017Z,12.10
2023-01-15T10:51:22.198Z,15.10
2023-01-15T10:53:59.479Z,13.90
2023-01-15T10:56:42.560Z,13.60
2023-01-15T10:59:15.857Z,11.60
2023-01-15T11:01:43.135Z,12.90
2023-01-15T11:04:13.740Z,12.60
2023-01-15T11:06:40.992Z,14.20
2023-01-15T11:09:16.535Z,15.30
2023-01-15T11:12:00.853Z,17.90
2023-01-15T11:14:57.531Z,18.30
2023-01-15T11:17:55.503Z,12.70
2023-01-15T11:20:36.166Z,12.80
2023-01-15T11:23:19.504Z,16.00
2023-01-15T11:25:51.881Z,17.60
2023-01-15T11:28:21.287Z,19.50
2023-01-15T11:30:55.828Z,17.70
2023-01-15T11:33:28.164Z,14.40
2023-01-15T11:36:21.985Z,13.30
2023-01-15T11:38:50.033Z,13.00
2023-01-15T11:41:26.321Z,16.40
2023-01-15T11:44:18.877Z,18.40
2023-01-15T11:47:05.442Z,16.50
2023-01-15T11:49:51.419Z,16.50
2023-01-15T12:00:04.693Z,18.40
2023-01-15T12:02:51.306Z,16.30
2023-01-15T12:05:26.185Z,17.40
2023-01-15T12:07:55.843Z,15.50
2023-01-15T12:10:45.875Z,15.40
2023-01-15T12:13:18.814Z,16.40
2023-01-15T12:15:55.472Z,18.30
2023-01-15T12:18:33.656Z,18.80
2023-01-15T12:21:05.559Z,18.70
2023-01-15T12:23:45.303Z,19.00
2023-01-15T12:26:28.789Z,15.30
2023-01-15T12:29:05.057Z,15.90
2023-01-15T12:31:40.729Z,15.70
2023-01-15T12:34:38.820Z,17.40
2023-01-15T12:37:10.279Z,17.00
2023-01-15T12:39:44.313Z,18.00
2023-01-15T12:42:31.938Z,14.60
2023-01-15T12:45:01.186Z,16.00
2023-01-15T12:47:48.939Z,17.40
2023-01-15T12:50:22.626Z,17.20
2023-01-15T12:52:52.633Z,17.30
2023-01-15T12:55:21.225Z,18.20
2023-01-15T12:57:54.262Z,18.30
2023-01-15T13:00:33.206Z,16.20
2023-01-15T13:03:12.820Z,16.00
2023-01-15T13:05:47.961Z,17.10
2023-01-15T16:36:40.629Z,24.80
2023-01-15T16:39:24.569Z,24.00
2023-01-15T16:41:57.085Z,25.00
2023-01-15T16:44:39.634Z,21.70
2023-01-15T16:47:07.630Z,24.60
2023-01-15T16:49:38.226Z,24.60
2023-01-15T16:52:35.424Z,21.30
2023-01-15T16:55:03.045Z,22.80
2023-01-15T16:57:35.224Z,23.40
2023-01-15T17:00:06.146Z,25.20
2023-01-15T17:02:44.667Z,23.90
2023-01-15T17:05:22.278Z,24.20
2023-01-15T17:07:50.059Z,22.10
2023-01-15T17:10:26.587Z,22.90
2023-01-15T17:12:56.067Z,25.20
2023-01-15T17:15:27.313Z,24.70
2023-01-15T17:17:55.014Z,25.70
2023-01-15T17:20:27.595Z,30.40
2023-01-15T17:22:55.137Z,25.50
2023-01-15T17:25:33.274Z,20.80
2023-01-15T17:28:02.137Z,23.20
2023-01-15T17:30:31.163Z,23.70
2023-01-15T17:33:03.619Z,23.50
2023-01-15T17:35:32.901Z,25.00
2023-01-15T17:38:00.063Z,25.80
2023-01-15T17:40:27.722Z,20.40
2023-01-15T17:42:55.885Z,23.90
2023-01-15T17:45:28.065Z,26.20
2023-01-15T17:47:55.407Z,24.40
2023-01-15T17:50:23.417Z,24.50
2023-01-15T17:52:50.638Z,27.50
2023-01-15T17:55:39.285Z,24.60
2023-01-15T17:58:27.427Z,21.60
2023-01-15T18:01:13.355Z,25.20
2023-01-15T18:04:03.716Z,24.80
2023-01-15T18:13:44.624Z,22.70
2023-01-15T18:16:13.162Z,21.20
2023-01-15T18:18:40.765Z,23.80
2023-01-15T18:21:08.027Z,24.10
2023-01-15T18:23:39.829Z,25.40
2023-01-15T18:26:07.863Z,24.90
2023-01-15T18:28:36.646Z,25.70
2023-01-15T18:31:04.152Z,23.10
2023-01-15T18:33:31.552Z,24.70
2023-01-15T18:36:13.139Z,26.70
2023-01-15T18:38:44.062Z,26.00
2023-01-15T18:41:13.271Z,25.50
2023-01-15T18:43:59.592Z,28.10
2023-01-15T18:46:48.664Z,24.60
2023-01-15T18:49:16.090Z,22.00
2023-01-15T18:51:43.961Z,29.20
2023-01-15T18:54:13.770Z,25.80
2023-01-15T18:56:43.144Z,25.60
2023-01-15T18:59:12.205Z,25.50
2023-01-15T19:01:40.590Z,22.70
2023-01-15T19:04:11.187Z,22.80
2023-01-15T19:06:39.892Z,42.90
2023-01-15T19:09:08.753Z,32.60
2023-01-15T19:11:36.927Z,25.00
2023-01-15T19:14:22.918Z,28.20
2023-01-15T19:17:08.906Z,24.70
2023-01-15T19:19:36.220Z,17.70
2023-01-15T19:22:21.959Z,19.40
2023-01-15T19:24:49.322Z,22.60
2023-01-15T19:27:17.505Z,22.10
2023-01-15T19:29:45.037Z,22.30
2023-01-15T19:32:13.002Z,23.60
2023-01-15T19:34:40.252Z,25.50
2023-01-15T19:37:08.118Z,21.10
2023-01-15T19:39:35.802Z,20.00
2023-01-15T19:42:21.777Z,18.90
2023-01-15T19:45:08.383Z,24.80
2023-01-15T19:47:56.012Z,49.70
2023-01-15T19:50:37.827Z,45.90
2023-01-15T19:53:05.976Z,27.10
2023-01-15T19:55:35.136Z,19.40
2023-01-15T19:58:04.544Z,20.00
2023-01-15T20:00:33.759Z,22.60
2023-01-15T20:03:03.122Z,24.40
2023-01-15T20:05:31.978Z,24.80
2023-01-15T20:08:00.040Z,21.60
2023-01-15T20:10:28.775Z,20.90
2023-01-15T20:13:14.827Z,17.90
2023-01-15T20:15:44.119Z,22.90
2023-01-15T20:18:12.078Z,24.40
2023-01-15T20:20:40.153Z,24.10
2023-01-15T20:23:08.028Z,25.10
2023-01-15T20:25:36.967Z,25.50
2023-01-15T20:28:06.859Z,24.90
2023-01-15T20:30:34.383Z,16.80
2023-01-15T20:33:03.917Z,18.90
2023-01-15T20:35:34.229Z,25.30
2023-01-15T20:38:04.139Z,35.30
2023-01-15T20:40:33.110Z,25.60
2023-01-15T20:43:19.521Z,24.80
2023-01-15T20:45:47.652Z,29.20
2023-01-15T20:48:15.354Z,16.70
2023-01-15T20:51:01.127Z,20.30
2023-01-15T20:53:33.789Z,21.40
2023-01-15T20:56:04.657Z,20.30
2023-01-15T20:58:32.000Z,21.20
2023-01-15T21:01:05.931Z,23.40
2023-01-15T21:03:33.238Z,20.50
2023-01-15T21:06:03.797Z,15.40
2023-01-15T21:08:33.865Z,16.00
2023-01-15T21:11:01.099Z,19.40
2023-01-15T21:13:28.324Z,19.70
2023-01-15T21:15:56.600Z,20.00
2023-01-15T21:18:24.709Z,21.00
2023-01-15T21:20:52.126Z,18.40
2023-01-15T21:23:19.173Z,17.60
2023-01-15T21:25:46.322Z,19.50
2023-01-15T21:28:13.678Z,19.50
2023-01-15T21:30:41.543Z,19.90
2023-01-15T21:33:09.056Z,19.80
2023-01-15T21:35:40.167Z,18.40
2023-01-15T21:38:08.291Z,18.40
2023-01-15T21:40:38.639Z,15.00
2023-01-15T21:43:24.945Z,16.70
2023-01-15T21:45:52.126Z,18.50
2023-01-15T21:48:19.594Z,17.00
2023-01-15T21:50:46.814Z,18.00
2023-01-15T21:53:13.952Z,17.40
2023-01-15T21:55:48.694Z,18.40
2023-01-15T21:58:16.130Z,17.30
2023-01-15T22:00:43.387Z,17.20
2023-01-15T22:03:12.477Z,17.20
2023-01-15T22:05:39.625Z,18.50
2023-01-15T22:08:08.744Z,19.00
2023-01-15T22:10:35.876Z,18.70
2023-01-15T22:13:03.035Z,17.70
2023-01-15T22:15:30.281Z,16.70
2023-01-15T22:17:58.244Z,15.90
2023-01-15T22:20:25.600Z,16.90
2023-01-15T22:22:52.744Z,17.70
2023-01-15T22:25:20.101Z,29.70
2023-01-15T22:27:47.149Z,20.10
2023-01-15T22:30:15.859Z,19.80
2023-01-15T22:32:43.105Z,17.80
2023-01-15T22:35:11.054Z,15.70
2023-01-15T22:37:38.305Z,17.80
2023-01-15T22:40:06.598Z,17.50
2023-01-15T22:42:33.942Z,15.90
2023-01-15T22:45:01.188Z,15.60
2023-01-15T22:47:28.958Z,17.20
2023-01-15T22:49:56.210Z,13.90
2023-01-15T22:52:25.758Z,16.70
2023-01-15T22:54:53.285Z,19.00
2023-01-15T22:57:20.621Z,20.80
2023-01-15T22:59:47.879Z,18.70
2023-01-15T23:02:14.976Z,19.40
2023-01-15T23:04:42.118Z,19.80
2023-01-15T23:07:09.674Z,13.90
2023-01-15T23:09:36.669Z,13.50
2023-01-15T23:12:03.929Z,16.70
2023-01-15T23:14:30.931Z,16.80
2023-01-15T23:16:58.041Z,17.20
2023-01-15T23:19:28.007Z,16.70
2023-01-15T23:21:55.348Z,16.20
2023-01-15T23:24:22.355Z,15.90
2023-01-15T23:26:49.401Z,13.70
2023-01-15T23:29:16.507Z,15.70
2023-01-15T23:31:43.528Z,16.60
2023-01-15T23:34:11.460Z,15.70
2023-01-15T23:36:38.844Z,15.10
2023-01-15T23:39:05.942Z,13.90
2023-01-15T23:41:51.555Z,14.20
2023-01-15T23:44:38.200Z,16.20
2023-01-15T23:47:06.344Z,15.90
2023-01-15T23:49:33.373Z,16.50
2023-01-15T23:52:00.471Z,16.60
2023-01-15T23:54:29.075Z,13.50
2023-01-15T23:56:56.536Z,15.50
2023-01-15T23:59:23.919Z,17.10
